sensor_id;sensor_type;location;lat;lon;timestamp;pressure;altitude;pressure_sealevel;temperature
16956;BMP180;8594;52.052;8.354;2023-01-24T00:00:09;102777.00;;;4.70
16956;BMP180;8594;52.052;8.354;2023-01-24T00:02:38;102782.00;;;4.60
16956;BMP180;8594;52.052;8.354;2023-01-24T00:05:06;102781.00;;;4.70
16956;BMP180;8594;52.052;8.354;2023-01-24T00:07:33;102783.00;;;4.80
16956;BMP180;8594;52.052;8.354;2023-01-24T00:10:00;102791.00;;;5.10
16956;BMP180;8594;52.052;8.354;2023-01-24T00:12:28;102775.00;;;5.20
16956;BMP180;8594;52.052;8.354;2023-01-24T00:14:55;102768.00;;;5.10
16956;BMP180;8594;52.052;8.354;2023-01-24T00:17:23;102772.00;;;4.90
16956;BMP180;8594;52.052;8.354;2023-01-24T00:19:52;102764.00;;;4.80
16956;BMP180;8594;52.052;8.354;2023-01-24T00:22:18;102764.00;;;4.60
16956;BMP180;8594;52.052;8.354;2023-01-24T00:24:45;102777.00;;;4.40
16956;BMP180;8594;52.052;8.354;2023-01-24T00:27:14;102779.00;;;4.70
16956;BMP180;8594;52.052;8.354;2023-01-24T00:29:41;102775.00;;;4.70
16956;BMP180;8594;52.052;8.354;2023-01-24T00:32:08;102790.00;;;4.70
16956;BMP180;8594;52.052;8.354;2023-01-24T00:34:35;102779.00;;;4.80
16956;BMP180;8594;52.052;8.354;2023-01-24T00:37:03;102776.00;;;4.80
16956;BMP180;8594;52.052;8.354;2023-01-24T00:39:30;102777.00;;;4.70
16956;BMP180;8594;52.052;8.354;2023-01-24T00:41:57;102775.00;;;4.50
16956;BMP180;8594;52.052;8.354;2023-01-24T00:44:23;102775.00;;;4.60
16956;BMP180;8594;52.052;8.354;2023-01-24T00:46:51;102778.00;;;4.30
16956;BMP180;8594;52.052;8.354;2023-01-24T00:49:17;102772.00;;;4.70
16956;BMP180;8594;52.052;8.354;2023-01-24T00:51:44;102774.00;;;4.90
16956;BMP180;8594;52.052;8.354;2023-01-24T00:54:13;102772.00;;;4.70
16956;BMP180;8594;52.052;8.354;2023-01-24T00:56:39;102762.00;;;4.30
16956;BMP180;8594;52.052;8.354;2023-01-24T00:59:06;102769.00;;;4.20
16956;BMP180;8594;52.052;8.354;2023-01-24T01:01:33;102780.00;;;4.60
16956;BMP180;8594;52.052;8.354;2023-01-24T01:04:00;102771.00;;;4.50
16956;BMP180;8594;52.052;8.354;2023-01-24T01:06:27;102775.00;;;4.70
16956;BMP180;8594;52.052;8.354;2023-01-24T01:08:54;102783.00;;;5.00
16956;BMP180;8594;52.052;8.354;2023-01-24T01:11:23;102786.00;;;4.40
16956;BMP180;8594;52.052;8.354;2023-01-24T01:13:49;102785.00;;;4.40
16956;BMP180;8594;52.052;8.354;2023-01-24T01:16:18;102777.00;;;4.50
16956;BMP180;8594;52.052;8.354;2023-01-24T01:18:47;102778.00;;;4.30
16956;BMP180;8594;52.052;8.354;2023-01-24T01:21:17;102776.00;;;4.30
16956;BMP180;8594;52.052;8.354;2023-01-24T01:23:45;102768.00;;;4.30
16956;BMP180;8594;52.052;8.354;2023-01-24T01:26:16;102782.00;;;4.60
16956;BMP180;8594;52.052;8.354;2023-01-24T01:28:44;102783.00;;;4.90
16956;BMP180;8594;52.052;8.354;2023-01-24T01:31:13;102783.00;;;4.90
16956;BMP180;8594;52.052;8.354;2023-01-24T01:33:40;102772.00;;;5.00
16956;BMP180;8594;52.052;8.354;2023-01-24T01:36:07;102767.00;;;5.10
16956;BMP180;8594;52.052;8.354;2023-01-24T01:38:34;102773.00;;;5.20
16956;BMP180;8594;52.052;8.354;2023-01-24T01:41:01;102771.00;;;4.80
16956;BMP180;8594;52.052;8.354;2023-01-24T01:43:29;102771.00;;;4.60
16956;BMP180;8594;52.052;8.354;2023-01-24T01:46:07;102778.00;;;4.40
16956;BMP180;8594;52.052;8.354;2023-01-24T01:48:47;102780.00;;;4.50
16956;BMP180;8594;52.052;8.354;2023-01-24T01:51:19;102767.00;;;4.40
16956;BMP180;8594;52.052;8.354;2023-01-24T01:53:52;102767.00;;;4.10
16956;BMP180;8594;52.052;8.354;2023-01-24T01:56:26;102772.00;;;4.00
16956;BMP180;8594;52.052;8.354;2023-01-24T01:59:01;102769.00;;;4.50
16956;BMP180;8594;52.052;8.354;2023-01-24T02:01:30;102776.00;;;4.50
16956;BMP180;8594;52.052;8.354;2023-01-24T02:04:06;102774.00;;;4.50
16956;BMP180;8594;52.052;8.354;2023-01-24T02:06:48;102775.00;;;4.70
16956;BMP180;8594;52.052;8.354;2023-01-24T02:09:21;102770.00;;;4.10
16956;BMP180;8594;52.052;8.354;2023-01-24T02:11:52;102763.00;;;3.90
16956;BMP180;8594;52.052;8.354;2023-01-24T02:14:23;102752.00;;;4.10
16956;BMP180;8594;52.052;8.354;2023-01-24T02:17:15;102762.00;;;4.50
16956;BMP180;8594;52.052;8.354;2023-01-24T02:20:00;102747.00;;;4.20
16956;BMP180;8594;52.052;8.354;2023-01-24T02:22:42;102741.00;;;4.20
16956;BMP180;8594;52.052;8.354;2023-01-24T02:25:19;102755.00;;;4.40
16956;BMP180;8594;52.052;8.354;2023-01-24T02:27:49;102749.00;;;4.60
16956;BMP180;8594;52.052;8.354;2023-01-24T02:30:16;102758.00;;;4.40
16956;BMP180;8594;52.052;8.354;2023-01-24T02:32:43;102751.00;;;4.10
16956;BMP180;8594;52.052;8.354;2023-01-24T02:35:24;102743.00;;;3.90
16956;BMP180;8594;52.052;8.354;2023-01-24T02:37:51;102745.00;;;3.90
16956;BMP180;8594;52.052;8.354;2023-01-24T02:40:19;102756.00;;;4.20
16956;BMP180;8594;52.052;8.354;2023-01-24T02:42:46;102740.00;;;4.30
16956;BMP180;8594;52.052;8.354;2023-01-24T02:45:20;102742.00;;;4.30
16956;BMP180;8594;52.052;8.354;2023-01-24T02:47:52;102750.00;;;4.20
16956;BMP180;8594;52.052;8.354;2023-01-24T02:50:22;102752.00;;;4.30
16956;BMP180;8594;52.052;8.354;2023-01-24T02:52:49;102754.00;;;4.40
16956;BMP180;8594;52.052;8.354;2023-01-24T02:55:35;102737.00;;;3.80
16956;BMP180;8594;52.052;8.354;2023-01-24T02:58:24;102744.00;;;4.30
16956;BMP180;8594;52.052;8.354;2023-01-24T03:00:51;102747.00;;;4.50
16956;BMP180;8594;52.052;8.354;2023-01-24T03:03:18;102744.00;;;4.60
16956;BMP180;8594;52.052;8.354;2023-01-24T03:05:45;102740.00;;;4.70
16956;BMP180;8594;52.052;8.354;2023-01-24T03:08:22;102738.00;;;4.50
16956;BMP180;8594;52.052;8.354;2023-01-24T03:10:50;102729.00;;;4.70
16956;BMP180;8594;52.052;8.354;2023-01-24T03:13:17;102736.00;;;4.60
16956;BMP180;8594;52.052;8.354;2023-01-24T03:16:05;102735.00;;;4.50
16956;BMP180;8594;52.052;8.354;2023-01-24T03:18:50;102733.00;;;4.40
16956;BMP180;8594;52.052;8.354;2023-01-24T03:21:35;102732.00;;;4.40
16956;BMP180;8594;52.052;8.354;2023-01-24T03:24:20;102724.00;;;4.60
16956;BMP180;8594;52.052;8.354;2023-01-24T03:27:05;102730.00;;;4.60
16956;BMP180;8594;52.052;8.354;2023-01-24T03:29:50;102734.00;;;4.20
16956;BMP180;8594;52.052;8.354;2023-01-24T03:32:36;102734.00;;;4.40
16956;BMP180;8594;52.052;8.354;2023-01-24T03:35:21;102723.00;;;4.30
16956;BMP180;8594;52.052;8.354;2023-01-24T03:37:48;102722.00;;;3.70
16956;BMP180;8594;52.052;8.354;2023-01-24T03:40:33;102727.00;;;3.80
16956;BMP180;8594;52.052;8.354;2023-01-24T03:43:02;102722.00;;;3.80
16956;BMP180;8594;52.052;8.354;2023-01-24T03:45:31;102726.00;;;3.80
16956;BMP180;8594;52.052;8.354;2023-01-24T03:48:02;102731.00;;;3.80
16956;BMP180;8594;52.052;8.354;2023-01-24T03:50:32;102731.00;;;4.00
16956;BMP180;8594;52.052;8.354;2023-01-24T03:53:19;102730.00;;;3.90
16956;BMP180;8594;52.052;8.354;2023-01-24T03:55:46;102721.00;;;3.70
16956;BMP180;8594;52.052;8.354;2023-01-24T03:58:17;102733.00;;;3.90
16956;BMP180;8594;52.052;8.354;2023-01-24T04:00:44;102737.00;;;4.00
16956;BMP180;8594;52.052;8.354;2023-01-24T04:03:12;102733.00;;;3.90
16956;BMP180;8594;52.052;8.354;2023-01-24T04:05:39;102738.00;;;4.00
16956;BMP180;8594;52.052;8.354;2023-01-24T04:08:06;102729.00;;;3.90
16956;BMP180;8594;52.052;8.354;2023-01-24T04:10:34;102740.00;;;4.10
16956;BMP180;8594;52.052;8.354;2023-01-24T04:13:01;102733.00;;;4.10
16956;BMP180;8594;52.052;8.354;2023-01-24T04:15:31;102738.00;;;4.00
16956;BMP180;8594;52.052;8.354;2023-01-24T04:18:00;102740.00;;;4.00
16956;BMP180;8594;52.052;8.354;2023-01-24T04:20:31;102742.00;;;4.20
16956;BMP180;8594;52.052;8.354;2023-01-24T04:23:01;102741.00;;;4.10
16956;BMP180;8594;52.052;8.354;2023-01-24T04:25:28;102751.00;;;4.20
16956;BMP180;8594;52.052;8.354;2023-01-24T04:27:56;102742.00;;;4.30
16956;BMP180;8594;52.052;8.354;2023-01-24T04:30:23;102749.00;;;4.70
16956;BMP180;8594;52.052;8.354;2023-01-24T04:32:50;102741.00;;;4.90
16956;BMP180;8594;52.052;8.354;2023-01-24T04:35:20;102742.00;;;4.90
16956;BMP180;8594;52.052;8.354;2023-01-24T04:37:48;102729.00;;;4.30
16956;BMP180;8594;52.052;8.354;2023-01-24T04:40:16;102737.00;;;4.40
16956;BMP180;8594;52.052;8.354;2023-01-24T04:42:43;102744.00;;;4.40
16956;BMP180;8594;52.052;8.354;2023-01-24T04:45:10;102733.00;;;4.30
16956;BMP180;8594;52.052;8.354;2023-01-24T04:47:38;102729.00;;;4.00
16956;BMP180;8594;52.052;8.354;2023-01-24T04:50:06;102722.00;;;4.10
16956;BMP180;8594;52.052;8.354;2023-01-24T04:52:33;102728.00;;;4.20
16956;BMP180;8594;52.052;8.354;2023-01-24T04:55:02;102723.00;;;4.30
16956;BMP180;8594;52.052;8.354;2023-01-24T04:57:30;102719.00;;;3.90
16956;BMP180;8594;52.052;8.354;2023-01-24T04:59:56;102718.00;;;4.10
16956;BMP180;8594;52.052;8.354;2023-01-24T05:02:23;102730.00;;;4.10
16956;BMP180;8594;52.052;8.354;2023-01-24T05:04:50;102730.00;;;4.20
16956;BMP180;8594;52.052;8.354;2023-01-24T05:07:17;102723.00;;;3.90
16956;BMP180;8594;52.052;8.354;2023-01-24T05:09:44;102731.00;;;3.90
16956;BMP180;8594;52.052;8.354;2023-01-24T05:12:12;102731.00;;;4.00
16956;BMP180;8594;52.052;8.354;2023-01-24T05:14:39;102732.00;;;3.90
16956;BMP180;8594;52.052;8.354;2023-01-24T05:17:05;102743.00;;;3.70
16956;BMP180;8594;52.052;8.354;2023-01-24T05:19:32;102739.00;;;3.60
16956;BMP180;8594;52.052;8.354;2023-01-24T05:21:59;102740.00;;;3.50
16956;BMP180;8594;52.052;8.354;2023-01-24T05:24:26;102746.00;;;4.00
16956;BMP180;8594;52.052;8.354;2023-01-24T05:26:53;102744.00;;;4.10
16956;BMP180;8594;52.052;8.354;2023-01-24T05:29:21;102745.00;;;3.90
16956;BMP180;8594;52.052;8.354;2023-01-24T05:31:50;102746.00;;;3.90
16956;BMP180;8594;52.052;8.354;2023-01-24T05:34:17;102741.00;;;3.70
16956;BMP180;8594;52.052;8.354;2023-01-24T05:36:43;102751.00;;;4.20
16956;BMP180;8594;52.052;8.354;2023-01-24T05:39:10;102748.00;;;4.30
16956;BMP180;8594;52.052;8.354;2023-01-24T05:41:37;102755.00;;;4.30
16956;BMP180;8594;52.052;8.354;2023-01-24T05:44:04;102751.00;;;4.50
16956;BMP180;8594;52.052;8.354;2023-01-24T05:46:32;102756.00;;;4.50
16956;BMP180;8594;52.052;8.354;2023-01-24T05:48:59;102752.00;;;4.20
16956;BMP180;8594;52.052;8.354;2023-01-24T05:51:26;102753.00;;;4.20
16956;BMP180;8594;52.052;8.354;2023-01-24T05:53:53;102747.00;;;4.00
16956;BMP180;8594;52.052;8.354;2023-01-24T05:56:20;102751.00;;;4.20
16956;BMP180;8594;52.052;8.354;2023-01-24T05:58:47;102759.00;;;4.20
16956;BMP180;8594;52.052;8.354;2023-01-24T06:01:17;102764.00;;;4.50
16956;BMP180;8594;52.052;8.354;2023-01-24T06:03:49;102770.00;;;4.70
16956;BMP180;8594;52.052;8.354;2023-01-24T06:06:19;102770.00;;;4.40
16956;BMP180;8594;52.052;8.354;2023-01-24T06:08:46;102774.00;;;4.60
16956;BMP180;8594;52.052;8.354;2023-01-24T06:11:18;102778.00;;;4.10
16956;BMP180;8594;52.052;8.354;2023-01-24T06:13:46;102777.00;;;4.10
16956;BMP180;8594;52.052;8.354;2023-01-24T06:16:15;102779.00;;;4.00
16956;BMP180;8594;52.052;8.354;2023-01-24T06:18:43;102786.00;;;4.40
16956;BMP180;8594;52.052;8.354;2023-01-24T06:21:26;102780.00;;;4.40
16956;BMP180;8594;52.052;8.354;2023-01-24T06:24:02;102787.00;;;4.10
16956;BMP180;8594;52.052;8.354;2023-01-24T06:26:31;102791.00;;;4.40
16956;BMP180;8594;52.052;8.354;2023-01-24T06:28:59;102784.00;;;4.30
16956;BMP180;8594;52.052;8.354;2023-01-24T06:31:34;102791.00;;;4.50
16956;BMP180;8594;52.052;8.354;2023-01-24T06:37:13;102783.00;;;4.40
16956;BMP180;8594;52.052;8.354;2023-01-24T06:39:49;102788.00;;;4.30
16956;BMP180;8594;52.052;8.354;2023-01-24T06:42:17;102793.00;;;4.50
16956;BMP180;8594;52.052;8.354;2023-01-24T06:44:44;102793.00;;;4.40
16956;BMP180;8594;52.052;8.354;2023-01-24T06:47:12;102792.00;;;4.30
16956;BMP180;8594;52.052;8.354;2023-01-24T06:49:40;102795.00;;;4.10
16956;BMP180;8594;52.052;8.354;2023-01-24T06:52:08;102795.00;;;4.30
16956;BMP180;8594;52.052;8.354;2023-01-24T06:54:35;102801.00;;;4.40
16956;BMP180;8594;52.052;8.354;2023-01-24T06:57:03;102799.00;;;4.10
16956;BMP180;8594;52.052;8.354;2023-01-24T06:59:30;102806.00;;;4.10
16956;BMP180;8594;52.052;8.354;2023-01-24T07:01:56;102798.00;;;3.80
16956;BMP180;8594;52.052;8.354;2023-01-24T07:04:23;102799.00;;;3.70
16956;BMP180;8594;52.052;8.354;2023-01-24T07:06:50;102797.00;;;4.00
16956;BMP180;8594;52.052;8.354;2023-01-24T07:09:20;102805.00;;;4.10
16956;BMP180;8594;52.052;8.354;2023-01-24T07:11:47;102805.00;;;3.80
16956;BMP180;8594;52.052;8.354;2023-01-24T07:14:18;102809.00;;;3.70
16956;BMP180;8594;52.052;8.354;2023-01-24T07:16:45;102802.00;;;3.60
16956;BMP180;8594;52.052;8.354;2023-01-24T07:19:16;102810.00;;;3.70
16956;BMP180;8594;52.052;8.354;2023-01-24T07:21:44;102807.00;;;3.80
16956;BMP180;8594;52.052;8.354;2023-01-24T07:24:15;102813.00;;;3.60
16956;BMP180;8594;52.052;8.354;2023-01-24T07:26:44;102811.00;;;3.70
16956;BMP180;8594;52.052;8.354;2023-01-24T07:29:11;102809.00;;;3.60
16956;BMP180;8594;52.052;8.354;2023-01-24T07:31:38;102822.00;;;4.00
16956;BMP180;8594;52.052;8.354;2023-01-24T07:34:05;102820.00;;;3.90
16956;BMP180;8594;52.052;8.354;2023-01-24T07:36:32;102821.00;;;3.90
16956;BMP180;8594;52.052;8.354;2023-01-24T07:38:59;102825.00;;;3.70
16956;BMP180;8594;52.052;8.354;2023-01-24T07:41:26;102822.00;;;3.90
16956;BMP180;8594;52.052;8.354;2023-01-24T07:43:55;102830.00;;;4.00
16956;BMP180;8594;52.052;8.354;2023-01-24T07:46:22;102823.00;;;4.20
16956;BMP180;8594;52.052;8.354;2023-01-24T07:48:48;102829.00;;;4.30
16956;BMP180;8594;52.052;8.354;2023-01-24T07:51:15;102832.00;;;4.60
16956;BMP180;8594;52.052;8.354;2023-01-24T07:53:42;102837.00;;;4.10
16956;BMP180;8594;52.052;8.354;2023-01-24T07:56:09;102839.00;;;4.00
16956;BMP180;8594;52.052;8.354;2023-01-24T07:58:36;102834.00;;;4.20
16956;BMP180;8594;52.052;8.354;2023-01-24T08:01:04;102836.00;;;4.40
16956;BMP180;8594;52.052;8.354;2023-01-24T08:03:31;102840.00;;;4.30
16956;BMP180;8594;52.052;8.354;2023-01-24T08:05:59;102828.00;;;4.10
16956;BMP180;8594;52.052;8.354;2023-01-24T08:08:26;102835.00;;;4.20
16956;BMP180;8594;52.052;8.354;2023-01-24T08:10:52;102838.00;;;3.90
16956;BMP180;8594;52.052;8.354;2023-01-24T08:13:19;102841.00;;;4.10
16956;BMP180;8594;52.052;8.354;2023-01-24T08:15:47;102838.00;;;3.70
16956;BMP180;8594;52.052;8.354;2023-01-24T08:18:15;102845.00;;;3.60
16956;BMP180;8594;52.052;8.354;2023-01-24T08:20:43;102846.00;;;4.10
16956;BMP180;8594;52.052;8.354;2023-01-24T08:23:10;102847.00;;;4.30
16956;BMP180;8594;52.052;8.354;2023-01-24T08:25:36;102849.00;;;4.20
16956;BMP180;8594;52.052;8.354;2023-01-24T08:28:04;102846.00;;;3.80
16956;BMP180;8594;52.052;8.354;2023-01-24T08:30:30;102857.00;;;4.10
16956;BMP180;8594;52.052;8.354;2023-01-24T08:33:01;102854.00;;;4.30
16956;BMP180;8594;52.052;8.354;2023-01-24T08:35:31;102864.00;;;4.20
16956;BMP180;8594;52.052;8.354;2023-01-24T08:37:58;102866.00;;;4.60
16956;BMP180;8594;52.052;8.354;2023-01-24T08:40:26;102864.00;;;4.00
16956;BMP180;8594;52.052;8.354;2023-01-24T08:42:52;102865.00;;;4.00
16956;BMP180;8594;52.052;8.354;2023-01-24T08:45:19;102862.00;;;4.30
16956;BMP180;8594;52.052;8.354;2023-01-24T08:47:51;102864.00;;;4.50
16956;BMP180;8594;52.052;8.354;2023-01-24T08:50:18;102859.00;;;4.30
16956;BMP180;8594;52.052;8.354;2023-01-24T08:52:48;102861.00;;;4.50
16956;BMP180;8594;52.052;8.354;2023-01-24T08:55:15;102865.00;;;4.30
16956;BMP180;8594;52.052;8.354;2023-01-24T08:57:42;102864.00;;;4.30
16956;BMP180;8594;52.052;8.354;2023-01-24T09:00:10;102872.00;;;4.60
16956;BMP180;8594;52.052;8.354;2023-01-24T09:02:37;102881.00;;;4.80
16956;BMP180;8594;52.052;8.354;2023-01-24T09:05:06;102879.00;;;4.30
16956;BMP180;8594;52.052;8.354;2023-01-24T09:07:34;102876.00;;;4.20
16956;BMP180;8594;52.052;8.354;2023-01-24T09:10:03;102880.00;;;4.10
16956;BMP180;8594;52.052;8.354;2023-01-24T09:12:30;102871.00;;;4.20
16956;BMP180;8594;52.052;8.354;2023-01-24T09:14:58;102882.00;;;4.50
16956;BMP180;8594;52.052;8.354;2023-01-24T09:17:25;102877.00;;;4.70
16956;BMP180;8594;52.052;8.354;2023-01-24T09:19:51;102889.00;;;4.60
16956;BMP180;8594;52.052;8.354;2023-01-24T09:22:18;102884.00;;;4.20
16956;BMP180;8594;52.052;8.354;2023-01-24T09:24:45;102885.00;;;4.20
16956;BMP180;8594;52.052;8.354;2023-01-24T09:27:13;102884.00;;;4.50
16956;BMP180;8594;52.052;8.354;2023-01-24T09:29:40;102884.00;;;4.20
16956;BMP180;8594;52.052;8.354;2023-01-24T09:32:07;102880.00;;;4.00
16956;BMP180;8594;52.052;8.354;2023-01-24T09:34:33;102888.00;;;4.00
16956;BMP180;8594;52.052;8.354;2023-01-24T09:37:00;102889.00;;;4.50
16956;BMP180;8594;52.052;8.354;2023-01-24T09:39:27;102900.00;;;4.40
16956;BMP180;8594;52.052;8.354;2023-01-24T09:42:03;102889.00;;;4.40
16956;BMP180;8594;52.052;8.354;2023-01-24T09:44:39;102897.00;;;4.50
16956;BMP180;8594;52.052;8.354;2023-01-24T09:47:18;102900.00;;;4.40
16956;BMP180;8594;52.052;8.354;2023-01-24T09:49:52;102888.00;;;4.60
16956;BMP180;8594;52.052;8.354;2023-01-24T09:52:30;102903.00;;;4.70
16956;BMP180;8594;52.052;8.354;2023-01-24T09:55:05;102896.00;;;4.50
16956;BMP180;8594;52.052;8.354;2023-01-24T09:57:48;102905.00;;;4.60
16956;BMP180;8594;52.052;8.354;2023-01-24T10:00:24;102897.00;;;4.40
16956;BMP180;8594;52.052;8.354;2023-01-24T10:02:55;102885.00;;;4.80
16956;BMP180;8594;52.052;8.354;2023-01-24T10:05:28;102902.00;;;4.40
16956;BMP180;8594;52.052;8.354;2023-01-24T10:08:19;102895.00;;;4.50
16956;BMP180;8594;52.052;8.354;2023-01-24T10:10:59;102889.00;;;4.50
16956;BMP180;8594;52.052;8.354;2023-01-24T10:17:06;102899.00;;;4.50
16956;BMP180;8594;52.052;8.354;2023-01-24T10:19:59;102889.00;;;4.70
16956;BMP180;8594;52.052;8.354;2023-01-24T10:22:59;102900.00;;;4.70
16956;BMP180;8594;52.052;8.354;2023-01-24T10:25:33;102897.00;;;5.10
16956;BMP180;8594;52.052;8.354;2023-01-24T10:28:03;102898.00;;;5.30
16956;BMP180;8594;52.052;8.354;2023-01-24T10:30:40;102898.00;;;5.00
16956;BMP180;8594;52.052;8.354;2023-01-24T10:33:15;102886.00;;;4.90
16956;BMP180;8594;52.052;8.354;2023-01-24T10:35:55;102883.00;;;4.80
16956;BMP180;8594;52.052;8.354;2023-01-24T10:38:23;102879.00;;;4.70
16956;BMP180;8594;52.052;8.354;2023-01-24T10:40:53;102885.00;;;4.70
16956;BMP180;8594;52.052;8.354;2023-01-24T10:43:25;102866.00;;;5.00
16956;BMP180;8594;52.052;8.354;2023-01-24T10:46:09;102885.00;;;4.70
16956;BMP180;8594;52.052;8.354;2023-01-24T10:48:44;102872.00;;;4.90
16956;BMP180;8594;52.052;8.354;2023-01-24T10:51:15;102883.00;;;4.70
16956;BMP180;8594;52.052;8.354;2023-01-24T10:53:43;102877.00;;;4.70
16956;BMP180;8594;52.052;8.354;2023-01-24T10:56:12;102875.00;;;4.60
16956;BMP180;8594;52.052;8.354;2023-01-24T10:58:43;102874.00;;;4.70
16956;BMP180;8594;52.052;8.354;2023-01-24T11:01:18;102868.00;;;4.50
16956;BMP180;8594;52.052;8.354;2023-01-24T11:03:49;102871.00;;;4.90
16956;BMP180;8594;52.052;8.354;2023-01-24T11:06:31;102864.00;;;4.90
16956;BMP180;8594;52.052;8.354;2023-01-24T11:09:04;102866.00;;;4.80
16956;BMP180;8594;52.052;8.354;2023-01-24T11:11:42;102872.00;;;4.80
16956;BMP180;8594;52.052;8.354;2023-01-24T11:14:15;102862.00;;;4.50
16956;BMP180;8594;52.052;8.354;2023-01-24T11:16:46;102867.00;;;4.80
16956;BMP180;8594;52.052;8.354;2023-01-24T11:19:29;102870.00;;;5.20
16956;BMP180;8594;52.052;8.354;2023-01-24T11:21:59;102862.00;;;5.40
16956;BMP180;8594;52.052;8.354;2023-01-24T11:24:28;102864.00;;;5.40
16956;BMP180;8594;52.052;8.354;2023-01-24T11:27:02;102870.00;;;5.10
16956;BMP180;8594;52.052;8.354;2023-01-24T11:29:29;102859.00;;;5.10
16956;BMP180;8594;52.052;8.354;2023-01-24T11:32:19;102862.00;;;4.70
16956;BMP180;8594;52.052;8.354;2023-01-24T11:34:58;102852.00;;;4.80
16956;BMP180;8594;52.052;8.354;2023-01-24T11:37:56;102841.00;;;4.70
16956;BMP180;8594;52.052;8.354;2023-01-24T11:40:36;102841.00;;;4.70
16956;BMP180;8594;52.052;8.354;2023-01-24T11:43:35;102849.00;;;5.10
16956;BMP180;8594;52.052;8.354;2023-01-24T11:46:18;102844.00;;;4.60
16956;BMP180;8594;52.052;8.354;2023-01-24T11:48:53;102833.00;;;4.90
16956;BMP180;8594;52.052;8.354;2023-01-24T11:51:35;102830.00;;;4.60
16956;BMP180;8594;52.052;8.354;2023-01-24T11:54:29;102837.00;;;4.60
16956;BMP180;8594;52.052;8.354;2023-01-24T11:57:02;102833.00;;;4.70
16956;BMP180;8594;52.052;8.354;2023-01-24T11:59:53;102834.00;;;4.70
16956;BMP180;8594;52.052;8.354;2023-01-24T12:02:43;102829.00;;;4.80
16956;BMP180;8594;52.052;8.354;2023-01-24T12:05:39;102824.00;;;4.70
16956;BMP180;8594;52.052;8.354;2023-01-24T12:08:28;102822.00;;;4.50
16956;BMP180;8594;52.052;8.354;2023-01-24T12:11:05;102818.00;;;4.80
16956;BMP180;8594;52.052;8.354;2023-01-24T12:13:48;102822.00;;;4.70
16956;BMP180;8594;52.052;8.354;2023-01-24T12:16:29;102815.00;;;4.80
16956;BMP180;8594;52.052;8.354;2023-01-24T12:19:26;102813.00;;;4.90
16956;BMP180;8594;52.052;8.354;2023-01-24T12:21:59;102815.00;;;4.70
16956;BMP180;8594;52.052;8.354;2023-01-24T12:24:32;102812.00;;;4.40
16956;BMP180;8594;52.052;8.354;2023-01-24T12:27:06;102812.00;;;4.80
16956;BMP180;8594;52.052;8.354;2023-01-24T12:29:42;102807.00;;;5.00
16956;BMP180;8594;52.052;8.354;2023-01-24T12:32:19;102801.00;;;4.90
16956;BMP180;8594;52.052;8.354;2023-01-24T12:34:54;102803.00;;;4.80
16956;BMP180;8594;52.052;8.354;2023-01-24T12:37:28;102800.00;;;4.80
16956;BMP180;8594;52.052;8.354;2023-01-24T12:40:07;102796.00;;;4.80
16956;BMP180;8594;52.052;8.354;2023-01-24T12:42:52;102795.00;;;4.80
16956;BMP180;8594;52.052;8.354;2023-01-24T12:45:29;102791.00;;;4.70
16956;BMP180;8594;52.052;8.354;2023-01-24T12:48:06;102790.00;;;4.20
16956;BMP180;8594;52.052;8.354;2023-01-24T12:50:43;102789.00;;;4.30
16956;BMP180;8594;52.052;8.354;2023-01-24T12:53:21;102783.00;;;4.10
16956;BMP180;8594;52.052;8.354;2023-01-24T12:56:01;102781.00;;;4.10
16956;BMP180;8594;52.052;8.354;2023-01-24T12:58:34;102785.00;;;4.10
16956;BMP180;8594;52.052;8.354;2023-01-24T13:01:32;102793.00;;;4.10
16956;BMP180;8594;52.052;8.354;2023-01-24T13:04:19;102787.00;;;4.00
16956;BMP180;8594;52.052;8.354;2023-01-24T13:07:06;102777.00;;;4.10
16956;BMP180;8594;52.052;8.354;2023-01-24T13:09:41;102784.00;;;4.10
16956;BMP180;8594;52.052;8.354;2023-01-24T13:12:15;102780.00;;;4.50
16956;BMP180;8594;52.052;8.354;2023-01-24T13:14:46;102772.00;;;4.60
16956;BMP180;8594;52.052;8.354;2023-01-24T13:17:35;102773.00;;;4.80
16956;BMP180;8594;52.052;8.354;2023-01-24T13:20:51;102765.00;;;4.60
16956;BMP180;8594;52.052;8.354;2023-01-24T13:23:50;102766.00;;;4.80
16956;BMP180;8594;52.052;8.354;2023-01-24T13:26:40;102776.00;;;4.70
16956;BMP180;8594;52.052;8.354;2023-01-24T13:29:27;102782.00;;;4.20
16956;BMP180;8594;52.052;8.354;2023-01-24T13:32:05;102787.00;;;4.90
16956;BMP180;8594;52.052;8.354;2023-01-24T13:34:39;102787.00;;;5.00
16956;BMP180;8594;52.052;8.354;2023-01-24T13:37:20;102782.00;;;4.70
16956;BMP180;8594;52.052;8.354;2023-01-24T13:39:59;102776.00;;;4.70
16956;BMP180;8594;52.052;8.354;2023-01-24T13:42:33;102764.00;;;4.90
16956;BMP180;8594;52.052;8.354;2023-01-24T13:45:46;102773.00;;;4.90
16956;BMP180;8594;52.052;8.354;2023-01-24T13:48:46;102775.00;;;4.80
16956;BMP180;8594;52.052;8.354;2023-01-24T13:51:41;102772.00;;;4.70
16956;BMP180;8594;52.052;8.354;2023-01-24T13:54:19;102770.00;;;4.90
16956;BMP180;8594;52.052;8.354;2023-01-24T13:57:15;102775.00;;;4.80
16956;BMP180;8594;52.052;8.354;2023-01-24T14:00:03;102773.00;;;4.80
16956;BMP180;8594;52.052;8.354;2023-01-24T14:03:03;102780.00;;;4.80
16956;BMP180;8594;52.052;8.354;2023-01-24T14:05:43;102783.00;;;4.40
16956;BMP180;8594;52.052;8.354;2023-01-24T14:08:37;102781.00;;;4.40
16956;BMP180;8594;52.052;8.354;2023-01-24T14:11:37;102793.00;;;4.60
16956;BMP180;8594;52.052;8.354;2023-01-24T14:14:31;102799.00;;;4.70
16956;BMP180;8594;52.052;8.354;2023-01-24T14:17:28;102785.00;;;4.40
16956;BMP180;8594;52.052;8.354;2023-01-24T14:19:58;102794.00;;;4.60
16956;BMP180;8594;52.052;8.354;2023-01-24T14:22:37;102800.00;;;4.40
16956;BMP180;8594;52.052;8.354;2023-01-24T14:25:25;102789.00;;;4.60
16956;BMP180;8594;52.052;8.354;2023-01-24T14:28:00;102799.00;;;4.70
16956;BMP180;8594;52.052;8.354;2023-01-24T14:30:35;102807.00;;;4.50
16956;BMP180;8594;52.052;8.354;2023-01-24T14:33:27;102802.00;;;4.30
16956;BMP180;8594;52.052;8.354;2023-01-24T14:36:10;102809.00;;;4.50
16956;BMP180;8594;52.052;8.354;2023-01-24T14:38:39;102801.00;;;4.30
16956;BMP180;8594;52.052;8.354;2023-01-24T14:41:16;102800.00;;;4.50
16956;BMP180;8594;52.052;8.354;2023-01-24T14:43:44;102806.00;;;4.40
16956;BMP180;8594;52.052;8.354;2023-01-24T14:46:16;102813.00;;;4.50
16956;BMP180;8594;52.052;8.354;2023-01-24T14:48:46;102802.00;;;4.70
16956;BMP180;8594;52.052;8.354;2023-01-24T14:51:18;102798.00;;;4.60
16956;BMP180;8594;52.052;8.354;2023-01-24T14:53:50;102801.00;;;4.70
16956;BMP180;8594;52.052;8.354;2023-01-24T14:56:17;102805.00;;;4.70
16956;BMP180;8594;52.052;8.354;2023-01-24T14:58:46;102800.00;;;4.70
16956;BMP180;8594;52.052;8.354;2023-01-24T15:01:28;102810.00;;;4.60